createdAt,value
2017-12-28T00:01:00.006Z,2.57
2017-12-28T00:03:29.290Z,2.67
2017-12-28T00:05:57.584Z,2.60
2017-12-28T00:08:25.461Z,3.60
2017-12-28T00:10:53.393Z,6.07
2017-12-28T00:13:21.365Z,3.70
2017-12-28T00:15:49.227Z,3.00
2017-12-28T00:18:18.322Z,2.77
2017-12-28T00:20:46.263Z,2.30
2017-12-28T00:23:14.466Z,2.50
2017-12-28T00:25:42.979Z,2.70
2017-12-28T00:28:10.835Z,2.83
2017-12-28T00:30:38.705Z,5.07
2017-12-28T00:33:07.261Z,3.00
2017-12-28T00:35:35.155Z,2.57
2017-12-28T00:38:03.925Z,3.10
2017-12-28T00:40:31.812Z,2.30
2017-12-28T00:43:00.401Z,3.40
2017-12-28T00:45:28.253Z,2.90
2017-12-28T00:47:56.932Z,1.80
2017-12-28T00:50:24.990Z,2.50
2017-12-28T00:52:52.894Z,1.83
2017-12-28T00:55:22.274Z,1.40
2017-12-28T00:57:50.147Z,1.43
2017-12-28T01:00:17.935Z,1.33
2017-12-28T01:02:46.571Z,1.40
2017-12-28T01:05:14.561Z,1.27
2017-12-28T01:07:43.121Z,1.30
2017-12-28T01:10:10.999Z,1.50
2017-12-28T01:12:39.260Z,1.40
2017-12-28T01:15:07.067Z,1.00
2017-12-28T01:17:34.926Z,1.10
2017-12-28T01:20:02.975Z,1.50
2017-12-28T01:22:31.265Z,1.00
2017-12-28T01:24:59.038Z,1.10
2017-12-28T01:27:26.891Z,1.03
2017-12-28T01:29:55.252Z,1.10
2017-12-28T01:32:23.252Z,1.20
2017-12-28T01:34:51.195Z,0.80
2017-12-28T01:37:18.969Z,1.20
2017-12-28T01:39:46.948Z,1.00
2017-12-28T01:42:14.809Z,0.90
2017-12-28T01:44:42.752Z,0.83
2017-12-28T01:47:10.728Z,0.87
2017-12-28T01:49:39.540Z,0.90
2017-12-28T01:52:07.412Z,0.70
2017-12-28T01:54:35.352Z,0.70
2017-12-28T01:57:03.546Z,0.70
2017-12-28T01:59:31.412Z,0.70
2017-12-28T02:01:59.745Z,0.90
2017-12-28T02:04:28.683Z,0.70
2017-12-28T02:06:56.470Z,1.10
2017-12-28T02:09:27.177Z,0.97
2017-12-28T02:11:55.147Z,0.77
2017-12-28T02:14:23.024Z,0.87
2017-12-28T02:16:50.885Z,0.77
2017-12-28T02:19:18.823Z,0.90
2017-12-28T02:21:46.724Z,0.80
2017-12-28T02:24:14.678Z,0.80
2017-12-28T02:26:42.547Z,0.87
2017-12-28T02:29:10.624Z,0.70
2017-12-28T02:31:38.580Z,0.83
2017-12-28T02:34:06.561Z,1.00
2017-12-28T02:36:35.223Z,0.80
2017-12-28T02:39:03.121Z,0.80
2017-12-28T02:41:31.399Z,0.80
2017-12-28T02:43:59.442Z,0.77
2017-12-28T02:46:27.329Z,0.90
2017-12-28T02:48:55.190Z,0.97
2017-12-28T02:51:23.034Z,0.70
2017-12-28T02:53:50.902Z,1.00
2017-12-28T02:56:18.792Z,0.97
2017-12-28T02:58:46.634Z,1.30
2017-12-28T03:01:14.519Z,0.90
2017-12-28T03:03:42.423Z,0.93
2017-12-28T03:06:11.086Z,0.90
2017-12-28T03:08:38.925Z,0.90
2017-12-28T03:11:06.789Z,0.90
2017-12-28T03:13:34.701Z,0.90
2017-12-28T03:16:03.339Z,0.80
2017-12-28T03:18:31.113Z,1.10
2017-12-28T03:20:58.882Z,1.33
2017-12-28T03:23:27.576Z,0.93
2017-12-28T03:25:55.732Z,1.00
2017-12-28T03:28:23.712Z,0.80
2017-12-28T03:30:51.586Z,0.97
2017-12-28T03:33:19.529Z,1.03
2017-12-28T03:35:47.410Z,0.80
2017-12-28T03:38:15.288Z,0.87
2017-12-28T03:40:43.942Z,0.93
2017-12-28T03:43:11.851Z,0.90
2017-12-28T03:45:40.822Z,1.00
2017-12-28T03:48:10.513Z,0.80
2017-12-28T03:50:38.403Z,0.90
2017-12-28T03:53:06.176Z,0.83
2017-12-28T03:55:34.039Z,0.90
2017-12-28T03:58:01.903Z,0.80
2017-12-28T04:00:29.869Z,1.10
2017-12-28T04:02:57.732Z,1.10
2017-12-28T04:05:25.606Z,0.90
2017-12-28T04:07:53.368Z,1.20
2017-12-28T04:10:21.225Z,1.00
2017-12-28T04:12:49.177Z,0.97
2017-12-28T04:15:17.063Z,1.10
2017-12-28T04:17:45.215Z,1.00
2017-12-28T04:20:12.999Z,1.20
2017-12-28T04:22:40.851Z,1.13
2017-12-28T04:25:08.815Z,1.33
2017-12-28T04:27:36.702Z,0.93
2017-12-28T04:30:04.552Z,0.83
2017-12-28T04:32:32.619Z,1.10
2017-12-28T04:35:00.417Z,0.90
2017-12-28T04:37:28.486Z,1.00
2017-12-28T04:39:56.431Z,1.10
2017-12-28T04:42:24.314Z,1.20
2017-12-28T04:44:52.175Z,1.20
2017-12-28T04:47:20.228Z,1.20
2017-12-28T04:49:48.129Z,1.20
2017-12-28T04:52:17.597Z,0.83
2017-12-28T04:54:45.569Z,0.70
2017-12-28T04:57:13.357Z,1.10
2017-12-28T04:59:42.139Z,1.00
2017-12-28T05:02:09.912Z,1.17
2017-12-28T05:04:38.185Z,0.80
2017-12-28T05:07:06.149Z,1.23
2017-12-28T05:09:34.726Z,1.17
2017-12-28T05:12:02.789Z,0.90
2017-12-28T05:14:31.694Z,0.90
2017-12-28T05:16:59.644Z,0.80
2017-12-28T05:19:27.419Z,1.20
2017-12-28T05:21:55.374Z,0.93
2017-12-28T05:24:24.089Z,1.20
2017-12-28T05:26:53.689Z,1.00
2017-12-28T05:29:21.452Z,1.03
2017-12-28T05:31:49.326Z,0.90
2017-12-28T05:34:17.186Z,1.00
2017-12-28T05:36:45.053Z,1.20
2017-12-28T05:39:12.919Z,1.10
2017-12-28T05:41:41.683Z,0.90
2017-12-28T05:44:09.882Z,0.80
2017-12-28T05:46:37.851Z,1.07
2017-12-28T05:49:06.511Z,1.00
2017-12-28T05:51:34.483Z,1.00
2017-12-28T05:54:03.004Z,1.00
2017-12-28T05:56:31.646Z,0.90
2017-12-28T05:58:59.552Z,0.90
2017-12-28T06:01:27.409Z,1.10
2017-12-28T06:03:55.346Z,0.83
2017-12-28T06:06:23.835Z,1.40
2017-12-28T06:08:53.867Z,1.33
2017-12-28T06:11:21.643Z,1.53
2017-12-28T06:13:49.501Z,1.23
2017-12-28T06:16:17.363Z,1.10
2017-12-28T06:18:45.312Z,1.47
2017-12-28T06:21:13.280Z,1.73
2017-12-28T06:23:41.144Z,1.20
2017-12-28T06:26:09.217Z,2.30
2017-12-28T06:28:37.009Z,1.50
2017-12-28T06:31:05.902Z,1.70
2017-12-28T06:33:33.839Z,1.87
2017-12-28T06:36:01.613Z,1.63
2017-12-28T06:38:29.397Z,1.90
2017-12-28T06:40:57.922Z,1.70
2017-12-28T06:43:25.812Z,1.80
2017-12-28T06:45:54.830Z,1.40
2017-12-28T06:48:22.695Z,1.73
2017-12-28T06:50:50.645Z,1.77
2017-12-28T06:53:18.518Z,1.10
2017-12-28T06:55:46.580Z,1.40
2017-12-28T06:58:14.428Z,1.53
2017-12-28T07:00:42.820Z,1.40
2017-12-28T07:03:10.612Z,1.63
2017-12-28T07:05:38.552Z,1.00
2017-12-28T07:08:06.339Z,1.50
2017-12-28T07:10:34.291Z,1.50
2017-12-28T07:13:02.190Z,1.60
2017-12-28T07:15:29.983Z,1.53
2017-12-28T07:17:58.504Z,3.03
2017-12-28T07:20:26.390Z,2.17
2017-12-28T07:22:54.548Z,1.73
2017-12-28T07:25:22.538Z,36.33
2017-12-28T07:27:50.378Z,2.80
2017-12-28T07:30:18.886Z,2.40
2017-12-28T07:32:46.832Z,33.83
2017-12-28T07:35:14.719Z,28.87
2017-12-28T07:37:44.404Z,35.43
2017-12-28T07:40:12.270Z,51.30
2017-12-28T07:42:40.238Z,20.23
2017-12-28T07:45:08.242Z,10.30
2017-12-28T07:47:37.897Z,13.37
2017-12-28T07:50:05.656Z,17.30
2017-12-28T07:52:33.471Z,8.90
2017-12-28T07:55:01.621Z,8.30
2017-12-28T07:57:29.430Z,10.60
2017-12-28T07:59:58.087Z,6.57
2017-12-28T08:02:26.050Z,9.90
2017-12-28T08:04:53.882Z,5.27
2017-12-28T08:07:22.706Z,2.90
2017-12-28T08:09:50.685Z,30.97
2017-12-28T08:12:18.552Z,7.27
2017-12-28T08:14:46.725Z,3.00
2017-12-28T08:17:14.691Z,2.80
2017-12-28T08:19:42.647Z,27.30
2017-12-28T08:22:10.611Z,25.20
2017-12-28T08:24:38.358Z,9.70
2017-12-28T08:27:06.344Z,3.77
2017-12-28T08:29:34.273Z,1.70
2017-12-28T08:32:02.207Z,3.07
2017-12-28T08:34:30.282Z,3.20
2017-12-28T08:36:58.212Z,3.60
2017-12-28T08:39:27.007Z,12.50
2017-12-28T08:41:55.193Z,8.50
2017-12-28T08:44:23.964Z,2.90
2017-12-28T08:46:51.844Z,5.77
2017-12-28T08:49:20.308Z,13.33
2017-12-28T08:51:48.317Z,2.60
2017-12-28T08:54:16.245Z,2.57
2017-12-28T08:56:44.243Z,2.17
2017-12-28T08:59:12.101Z,3.67
2017-12-28T09:01:39.946Z,4.10
2017-12-28T09:04:07.930Z,2.10
2017-12-28T09:06:37.630Z,2.93
2017-12-28T09:09:05.625Z,5.37
2017-12-28T09:11:33.492Z,13.23
2017-12-28T09:14:01.359Z,11.17
2017-12-28T09:16:29.488Z,12.40
2017-12-28T09:18:57.246Z,11.90
2017-12-28T09:21:25.135Z,5.60
2017-12-28T09:23:53.620Z,3.17
2017-12-28T09:26:21.512Z,2.20
2017-12-28T09:28:50.296Z,3.03
2017-12-28T09:31:18.470Z,4.40
2017-12-28T09:33:46.340Z,1.90
2017-12-28T09:36:15.004Z,9.63
2017-12-28T09:38:42.903Z,12.93
2017-12-28T09:41:11.571Z,14.90
2017-12-28T09:43:39.446Z,6.90
2017-12-28T09:46:08.000Z,10.70
2017-12-28T09:48:35.770Z,12.07
2017-12-28T09:51:03.635Z,10.80
2017-12-28T09:53:31.407Z,2.93
2017-12-28T09:55:59.570Z,4.03
2017-12-28T09:58:27.440Z,10.27
2017-12-28T10:00:55.522Z,11.67
2017-12-28T10:03:23.391Z,6.83
2017-12-28T10:05:51.843Z,20.17
2017-12-28T10:08:21.371Z,6.97
2017-12-28T10:10:49.757Z,9.63
2017-12-28T10:13:18.329Z,3.10
2017-12-28T10:15:47.382Z,4.37
2017-12-28T10:18:15.813Z,5.50
2017-12-28T10:20:44.165Z,2.13
2017-12-28T10:23:11.904Z,3.20
2017-12-28T10:25:39.709Z,13.10
2017-12-28T10:28:07.658Z,6.37
2017-12-28T10:30:35.441Z,1.30
2017-12-28T10:33:03.391Z,5.23
2017-12-28T10:35:31.467Z,1.63
2017-12-28T10:37:59.261Z,2.10
2017-12-28T10:40:27.122Z,1.90
2017-12-28T10:42:54.946Z,1.27
2017-12-28T10:45:22.742Z,0.90
2017-12-28T10:47:50.610Z,1.50
2017-12-28T10:50:18.472Z,1.57
2017-12-28T10:52:47.055Z,1.30
2017-12-28T10:55:14.824Z,1.60
2017-12-28T10:57:42.669Z,1.40
2017-12-28T11:00:10.479Z,1.00
2017-12-28T11:02:39.218Z,5.33
2017-12-28T11:05:07.086Z,4.40
2017-12-28T11:07:34.963Z,4.20
2017-12-28T11:10:02.924Z,2.80
2017-12-28T11:12:30.888Z,3.57
2017-12-28T11:14:58.680Z,1.37
2017-12-28T11:17:26.723Z,1.97
2017-12-28T11:19:55.611Z,2.70
2017-12-28T11:22:23.500Z,3.47
2017-12-28T11:24:52.288Z,4.20
2017-12-28T11:27:21.484Z,1.77
2017-12-28T11:29:49.335Z,2.53
2017-12-28T11:32:17.539Z,3.47
2017-12-28T11:34:45.402Z,4.33
2017-12-28T11:37:14.081Z,2.30
2017-12-28T11:39:41.850Z,2.90
2017-12-28T11:42:10.528Z,3.13
2017-12-28T11:44:38.478Z,2.53
2017-12-28T11:47:07.399Z,2.40
2017-12-28T11:49:35.236Z,2.70
2017-12-28T11:52:06.977Z,2.80
2017-12-28T11:54:40.460Z,2.60
2017-12-28T11:57:13.286Z,3.50
2017-12-28T11:59:47.717Z,2.20
2017-12-28T12:02:15.890Z,2.20
2017-12-28T12:04:47.844Z,2.17
2017-12-28T12:07:15.915Z,3.17
2017-12-28T12:09:49.906Z,2.43
2017-12-28T12:12:17.778Z,2.80
2017-12-28T12:14:45.743Z,2.30
2017-12-28T12:17:14.736Z,3.30
2017-12-28T12:19:42.810Z,2.73
2017-12-28T12:22:10.590Z,2.53
2017-12-28T12:24:38.453Z,2.30
2017-12-28T12:27:07.229Z,2.43
2017-12-28T12:29:35.195Z,3.20
2017-12-28T12:32:03.053Z,2.70
2017-12-28T12:34:31.570Z,2.60
2017-12-28T12:36:59.433Z,2.40
2017-12-28T12:39:27.303Z,9.90
2017-12-28T12:41:55.243Z,3.00
2017-12-28T12:44:23.171Z,3.50
2017-12-28T12:46:51.389Z,3.60
2017-12-28T12:49:19.308Z,3.90
2017-12-28T12:51:48.060Z,3.23
2017-12-28T12:54:15.938Z,3.97
2017-12-28T12:56:43.704Z,3.70
2017-12-28T12:59:11.980Z,4.37
2017-12-28T13:01:39.914Z,3.80
2017-12-28T13:04:07.795Z,4.50
2017-12-28T13:06:35.746Z,4.00
2017-12-28T13:09:03.837Z,3.30
2017-12-28T13:11:32.417Z,3.17
2017-12-28T13:14:00.377Z,4.00
2017-12-28T13:16:28.155Z,3.83
2017-12-28T13:18:58.364Z,3.53
2017-12-28T13:21:26.120Z,4.10
2017-12-28T13:23:53.986Z,3.60
2017-12-28T13:26:21.858Z,4.40
2017-12-28T13:28:49.720Z,4.60
2017-12-28T13:31:18.244Z,3.70
2017-12-28T13:33:46.279Z,3.50
2017-12-28T13:36:14.378Z,4.47
2017-12-28T13:38:42.157Z,3.17
2017-12-28T13:41:10.692Z,2.90
2017-12-28T13:43:38.580Z,3.30
2017-12-28T13:46:06.444Z,3.90
2017-12-28T13:48:34.387Z,3.43
2017-12-28T13:51:02.275Z,7.70
2017-12-28T13:53:30.225Z,7.17
2017-12-28T13:55:58.093Z,4.17
2017-12-28T13:58:26.459Z,3.30
2017-12-28T14:00:54.245Z,3.80
2017-12-28T14:03:22.116Z,2.80
2017-12-28T14:05:49.900Z,2.87
2017-12-28T14:08:18.461Z,3.23
2017-12-28T14:10:46.335Z,3.00
2017-12-28T14:13:15.464Z,4.13
2017-12-28T14:15:44.125Z,3.20
2017-12-28T14:18:12.802Z,5.83
2017-12-28T14:20:40.726Z,7.50
2017-12-28T14:23:08.614Z,5.30
2017-12-28T14:25:36.577Z,3.53
2017-12-28T14:28:04.446Z,3.70
2017-12-28T14:30:32.231Z,3.07
2017-12-28T14:33:00.097Z,3.17
2017-12-28T14:35:28.044Z,3.50
2017-12-28T14:37:55.917Z,2.83
2017-12-28T14:40:23.776Z,3.63
2017-12-28T14:42:51.660Z,2.10
2017-12-28T14:45:19.611Z,2.50
2017-12-28T14:47:47.582Z,2.80
2017-12-28T14:50:15.551Z,2.93
2017-12-28T14:52:43.307Z,3.43
2017-12-28T14:55:11.215Z,2.93
2017-12-28T14:57:39.150Z,2.77
2017-12-28T15:00:07.116Z,2.50
2017-12-28T15:02:35.036Z,3.40
2017-12-28T15:05:02.963Z,2.40
2017-12-28T15:07:30.851Z,2.30
2017-12-28T15:09:59.709Z,1.97
2017-12-28T15:12:27.577Z,2.77
2017-12-28T15:14:55.392Z,3.20
2017-12-28T15:17:23.208Z,2.60
2017-12-28T15:19:51.175Z,3.07
2017-12-28T15:22:19.257Z,2.03
2017-12-28T15:24:47.136Z,1.90
2017-12-28T15:27:15.083Z,2.10
2017-12-28T15:29:42.973Z,2.70
2017-12-28T15:32:11.018Z,2.57
2017-12-28T15:34:38.881Z,3.37
2017-12-28T15:37:06.675Z,2.87
2017-12-28T15:39:34.619Z,1.77
2017-12-28T15:42:02.584Z,1.73
2017-12-28T15:44:30.483Z,1.70
2017-12-28T15:46:58.422Z,1.90
2017-12-28T15:49:26.210Z,1.60
2017-12-28T15:51:54.157Z,2.00
2017-12-28T15:54:22.122Z,2.17
2017-12-28T15:56:50.299Z,2.03
2017-12-28T15:59:18.230Z,2.10
2017-12-28T16:01:46.133Z,2.40
2017-12-28T16:04:13.895Z,3.73
2017-12-28T16:06:41.781Z,2.43
2017-12-28T16:09:09.732Z,2.07
2017-12-28T16:11:37.698Z,2.13
2017-12-28T16:14:05.579Z,1.97
2017-12-28T16:16:33.553Z,2.90
2017-12-28T16:19:01.436Z,2.33
2017-12-28T16:21:29.368Z,2.10
2017-12-28T16:23:57.350Z,1.70
2017-12-28T16:26:25.219Z,2.17
2017-12-28T16:28:53.106Z,2.87
2017-12-28T16:31:20.956Z,2.23
2017-12-28T16:33:48.902Z,2.73
2017-12-28T16:36:16.790Z,2.30
2017-12-28T16:38:44.762Z,2.67
2017-12-28T16:41:12.808Z,2.00
2017-12-28T16:43:40.778Z,2.53
2017-12-28T16:46:08.749Z,2.10
2017-12-28T16:48:36.643Z,2.53
2017-12-28T16:51:04.500Z,2.60
2017-12-28T16:53:32.370Z,2.03
2017-12-28T16:56:00.321Z,2.90
2017-12-28T16:58:29.304Z,2.57
2017-12-28T17:00:57.282Z,2.77
2017-12-28T17:03:25.350Z,3.37
2017-12-28T17:05:53.320Z,3.30
2017-12-28T17:08:21.285Z,2.80
2017-12-28T17:10:49.154Z,2.87
2017-12-28T17:13:17.120Z,3.20
2017-12-28T17:15:45.098Z,1.97
2017-12-28T17:18:13.895Z,2.80
2017-12-28T17:20:43.192Z,2.33
2017-12-28T17:23:11.347Z,3.20
2017-12-28T17:25:39.315Z,2.17
2017-12-28T17:28:07.201Z,2.00
2017-12-28T17:30:35.164Z,2.20
2017-12-28T17:33:03.148Z,12.97
2017-12-28T17:35:31.099Z,12.53
2017-12-28T17:37:59.060Z,8.20
2017-12-28T17:40:27.035Z,3.73
2017-12-28T17:42:54.918Z,4.23
2017-12-28T17:45:22.791Z,2.83
2017-12-28T17:47:50.703Z,3.87
2017-12-28T17:50:18.513Z,2.57
2017-12-28T17:52:46.291Z,2.43
2017-12-28T17:55:14.230Z,2.90
2017-12-28T17:57:42.196Z,3.73
2017-12-28T18:00:10.166Z,3.33
2017-12-28T18:02:38.031Z,2.20
2017-12-28T18:05:05.900Z,2.07
2017-12-28T18:07:33.884Z,2.30
2017-12-28T18:10:01.952Z,2.23
2017-12-28T18:12:29.823Z,2.10
2017-12-28T18:14:57.776Z,2.67
2017-12-28T18:17:25.948Z,2.40
2017-12-28T18:19:53.814Z,2.60
2017-12-28T18:22:21.783Z,3.00
2017-12-28T18:24:49.752Z,3.67
2017-12-28T18:27:17.719Z,2.13
2017-12-28T18:29:46.505Z,1.83
2017-12-28T18:32:14.475Z,2.47
2017-12-28T18:34:42.369Z,3.00
2017-12-28T18:37:10.230Z,4.70
2017-12-28T18:39:38.277Z,2.80
2017-12-28T18:42:06.267Z,2.23
2017-12-28T18:44:34.254Z,6.40
2017-12-28T18:47:02.491Z,6.83
2017-12-28T18:49:30.615Z,3.60
2017-12-28T18:51:59.372Z,1.90
2017-12-28T18:54:27.322Z,2.07
2017-12-28T18:56:55.287Z,1.70
2017-12-28T18:59:23.171Z,2.00
2017-12-28T19:01:51.133Z,1.77
2017-12-28T19:04:19.120Z,1.70
2017-12-28T19:06:47.172Z,2.10
2017-12-28T19:09:15.966Z,2.80
2017-12-28T19:11:43.921Z,3.90
2017-12-28T19:14:11.920Z,5.70
2017-12-28T19:16:40.681Z,4.33
2017-12-28T19:19:08.642Z,4.30
2017-12-28T19:21:36.452Z,4.40
2017-12-28T19:24:05.096Z,2.77
2017-12-28T19:26:32.987Z,2.03
2017-12-28T19:29:00.907Z,1.80
2017-12-28T19:31:28.897Z,1.77
2017-12-28T19:33:56.874Z,2.30
2017-12-28T19:36:24.848Z,2.20
2017-12-28T19:38:52.733Z,1.97
2017-12-28T19:41:20.669Z,1.90
2017-12-28T19:43:48.468Z,2.80
2017-12-28T19:46:16.413Z,2.33
2017-12-28T19:48:44.427Z,1.97
2017-12-28T19:51:13.157Z,1.80
2017-12-28T19:53:41.131Z,2.13
2017-12-28T19:56:09.306Z,2.50
2017-12-28T19:58:37.279Z,1.80
2017-12-28T20:01:05.240Z,2.93
2017-12-28T20:03:36.267Z,2.37
2017-12-28T20:06:05.195Z,2.03
2017-12-28T20:08:33.145Z,2.00
2017-12-28T20:11:04.693Z,2.00
2017-12-28T20:13:32.935Z,1.67
2017-12-28T20:16:00.833Z,1.87
2017-12-28T20:18:28.907Z,4.80
2017-12-28T20:20:56.877Z,7.33
2017-12-28T20:23:24.662Z,7.00
2017-12-28T20:25:52.528Z,5.70
2017-12-28T20:28:20.386Z,6.20
2017-12-28T20:30:48.257Z,4.40
2017-12-28T20:33:16.056Z,4.07
2017-12-28T20:35:44.788Z,2.07
2017-12-28T20:38:12.680Z,1.63
2017-12-28T20:40:40.625Z,1.50
2017-12-28T20:43:11.130Z,1.70
2017-12-28T20:45:39.332Z,1.70
2017-12-28T20:48:07.399Z,2.00
2017-12-28T20:50:35.364Z,2.17
2017-12-28T20:53:03.342Z,1.97
2017-12-28T20:55:31.304Z,2.47
2017-12-28T20:57:59.473Z,2.00
2017-12-28T21:00:27.479Z,2.10
2017-12-28T21:02:55.416Z,3.07
2017-12-28T21:05:23.430Z,2.60
2017-12-28T21:07:52.172Z,2.30
2017-12-28T21:10:20.166Z,2.67
2017-12-28T21:12:48.922Z,2.70
2017-12-28T21:15:16.707Z,2.30
2017-12-28T21:17:44.762Z,2.50
2017-12-28T21:20:12.756Z,2.07
2017-12-28T21:22:40.615Z,1.80
2017-12-28T21:25:08.502Z,1.80
2017-12-28T21:27:36.432Z,2.43
2017-12-28T21:30:04.319Z,2.20
2017-12-28T21:32:32.375Z,2.67
2017-12-28T21:35:00.497Z,1.73
2017-12-28T21:37:29.146Z,2.57
2017-12-28T21:39:57.162Z,2.97
2017-12-28T21:42:24.975Z,2.23
2017-12-28T21:44:53.055Z,2.20
2017-12-28T21:47:21.005Z,2.60
2017-12-28T21:49:48.966Z,2.00
2017-12-28T21:52:16.954Z,1.70
2017-12-28T21:54:44.912Z,2.20
2017-12-28T21:57:13.002Z,2.50
2017-12-28T21:59:40.944Z,2.37
2017-12-28T22:02:08.809Z,1.87
2017-12-28T22:04:36.678Z,2.17
2017-12-28T22:07:04.671Z,1.87
2017-12-28T22:09:32.446Z,1.80
2017-12-28T22:12:00.303Z,1.77
2017-12-28T22:14:28.244Z,2.20
2017-12-28T22:16:56.215Z,2.50
2017-12-28T22:19:24.114Z,2.10
2017-12-28T22:21:51.968Z,2.60
2017-12-28T22:24:20.015Z,2.00
2017-12-28T22:26:47.989Z,1.80
2017-12-28T22:29:15.956Z,2.63
2017-12-28T22:31:43.836Z,1.80
2017-12-28T22:34:11.791Z,1.93
2017-12-28T22:36:39.601Z,2.20
2017-12-28T22:39:08.130Z,1.90
2017-12-28T22:41:36.009Z,2.20
2017-12-28T22:44:04.176Z,2.27
2017-12-28T22:46:32.143Z,1.83
2017-12-28T22:49:01.751Z,2.10
2017-12-28T22:51:29.672Z,2.07
2017-12-28T22:53:58.302Z,2.07
2017-12-28T22:56:26.294Z,1.70
2017-12-28T22:58:54.240Z,1.73
2017-12-28T23:01:22.948Z,1.17
2017-12-28T23:03:50.819Z,1.30
2017-12-28T23:06:18.691Z,2.20
2017-12-28T23:08:46.545Z,1.80
2017-12-28T23:11:14.524Z,1.67
2017-12-28T23:13:42.461Z,1.90
2017-12-28T23:16:10.332Z,1.90
2017-12-28T23:18:38.298Z,1.67
2017-12-28T23:21:06.278Z,1.93
2017-12-28T23:23:34.159Z,1.00
2017-12-28T23:26:02.216Z,1.60
2017-12-28T23:28:30.072Z,1.30
2017-12-28T23:30:57.856Z,1.80
2017-12-28T23:33:25.801Z,1.80
2017-12-28T23:35:53.665Z,2.73
2017-12-28T23:38:21.553Z,1.43
2017-12-28T23:40:49.426Z,1.40
2017-12-28T23:43:17.366Z,1.50
2017-12-28T23:45:45.346Z,1.80
2017-12-28T23:48:13.303Z,1.97
2017-12-28T23:50:41.098Z,1.43
2017-12-28T23:53:08.962Z,1.60
2017-12-28T23:55:36.822Z,1.97
2017-12-28T23:58:04.709Z,1.17
